Terminal Aerodrome Forecast
Issued by NWS St Louis, MO

Home | Current Version | Previous Version | Text Only | Print | Product List | Glossary On
Versions: 1 2 3 4 5 6 7 8 9 10 11 12 13 14 15 16 17 18 19 20 21 22 23 24 25 26 27 28 29 30 31
000
FTUS43 KLSX 271500 AAA
TAFSTL
TAF AMD
KSTL 271501Z 2715/2818 VRB04KT P6SM SCT250
     FM271900 04007KT P6SM VCTS SCT040CB BKN250
     FM280100 08005KT P6SM BKN250
     FM280800 11005KT P6SM BKN040
      TEMPO 2808/2812 4SM BR=

USA.gov is the U.S. government's official web portal to all federal, state and local government web resources and services.